Marine Rescue Ps-30 — PS-30 — position and weather

sailwx.info

Track history (hours):
 
Tides and Currents Weather Stations Pressure Air Temp Water Temp Dewpoint Dewpoint Depression Visibility Wind Speed Wind Dir Waves Ship Positions

Marine Rescue Ps-30

Last reported at 2018-Feb-21 00:47 UTC. Time now 2018-Feb-23 10:57 UTC.
Position S 32°43' E 152°09'.

Length 9 m.

Type: SAR. MMSI: 503613700.

Date/timePositionNaut miles runAvg speedWind from/ knotsBaromVisibWave heightAir tempDewpointWater temp
2018-Feb-21 00:47S 32°43' E 152°09'1 3.0
2018-Feb-21 00:30S 32°43' E 152°09'2 3.3
2018-Feb-21 00:01S 32°41' E 152°11'  
2018-Feb-17 00:59S 32°43' E 152°09'4 9.1
2018-Feb-17 00:30S 32°42' E 152°04'0 0.0
2018-Feb-17 00:00S 32°42' E 152°04'0 0.0
2018-Feb-16 23:30S 32°42' E 152°04'0 0.1
2018-Feb-16 23:00S 32°42' E 152°04'611.2
2018-Feb-16 22:30S 32°43' E 152°10'1 2.0
2018-Feb-16 22:01S 32°43' E 152°09'  
2018-Feb-13 01:34S 32°43' E 152°09'0 0.0
2018-Feb-13 01:30S 32°43' E 152°09'2 3.6
2018-Feb-13 01:00S 32°43' E 152°06'2 3.8
2018-Feb-13 00:30S 32°43' E 152°09'1 2.4
2018-Feb-13 00:01S 32°43' E 152°10'0 0.2
2018-Feb-12 22:36S 32°43' E 152°10'115.0
2018-Feb-12 22:30S 32°43' E 152°09'  
Track history (hours):
 
Tides and Currents Weather Stations Pressure Air Temp Water Temp Dewpoint Dewpoint Depression Visibility Wind Speed Wind Dir Waves Ship Positions

Marine Rescue Ps-30

Last reported at 2018-Feb-21 00:47 UTC. Time now 2018-Feb-23 10:57 UTC.
Position S 32°43' E 152°09'.

Length 9 m.

Type: SAR. MMSI: 503613700.

Date/timePositionNaut miles runAvg speedWind from/ knotsBaromVisibWave heightAir tempDewpointWater temp
2018-Feb-21 00:47S 32°43' E 152°09'1 3.0
2018-Feb-21 00:30S 32°43' E 152°09'2 3.3
2018-Feb-21 00:01S 32°41' E 152°11'  
2018-Feb-17 00:59S 32°43' E 152°09'4 9.1
2018-Feb-17 00:30S 32°42' E 152°04'0 0.0
2018-Feb-17 00:00S 32°42' E 152°04'0 0.0
2018-Feb-16 23:30S 32°42' E 152°04'0 0.1
2018-Feb-16 23:00S 32°42' E 152°04'611.2
2018-Feb-16 22:30S 32°43' E 152°10'1 2.0
2018-Feb-16 22:01S 32°43' E 152°09'  
2018-Feb-13 01:34S 32°43' E 152°09'0 0.0
2018-Feb-13 01:30S 32°43' E 152°09'2 3.6
2018-Feb-13 01:00S 32°43' E 152°06'2 3.8
2018-Feb-13 00:30S 32°43' E 152°09'1 2.4
2018-Feb-13 00:01S 32°43' E 152°10'0 0.2
2018-Feb-12 22:36S 32°43' E 152°10'115.0
2018-Feb-12 22:30S 32°43' E 152°09'  

Dump ship's entire track history